sensor_id;sensor_type;location;lat;lon;timestamp;pressure;altitude;pressure_sealevel;temperature;humidity
40872;BME280;26591;43.264;26.940;2023-03-04T00:01:50;99044.28;;;6.65;78.47
40872;BME280;26591;43.264;26.940;2023-03-04T00:04:16;99046.34;;;6.71;78.43
40872;BME280;26591;43.264;26.940;2023-03-04T00:06:42;99053.59;;;7.07;77.69
40872;BME280;26591;43.264;26.940;2023-03-04T00:09:07;99051.59;;;7.29;77.58
40872;BME280;26591;43.264;26.940;2023-03-04T00:11:58;99062.41;;;7.26;77.42
40872;BME280;26591;43.264;26.940;2023-03-04T00:14:23;99058.34;;;6.94;77.16
40872;BME280;26591;43.264;26.940;2023-03-04T00:16:49;99060.84;;;6.95;77.84
40872;BME280;26591;43.264;26.940;2023-03-04T00:19:14;99064.38;;;7.14;76.81
40872;BME280;26591;43.264;26.940;2023-03-04T00:21:40;99059.44;;;7.11;76.67
40872;BME280;26591;43.264;26.940;2023-03-04T00:24:05;99060.03;;;7.32;76.79
40872;BME280;26591;43.264;26.940;2023-03-04T00:26:31;99055.84;;;7.02;77.54
40872;BME280;26591;43.264;26.940;2023-03-04T00:28:57;99057.81;;;6.90;78.05
40872;BME280;26591;43.264;26.940;2023-03-04T00:31:22;99057.25;;;6.86;78.23
40872;BME280;26591;43.264;26.940;2023-03-04T00:33:48;99059.75;;;6.78;78.33
40872;BME280;26591;43.264;26.940;2023-03-04T00:36:13;99058.66;;;6.91;78.39
40872;BME280;26591;43.264;26.940;2023-03-04T00:38:38;99051.31;;;6.84;78.06
40872;BME280;26591;43.264;26.940;2023-03-04T00:41:04;99050.00;;;7.08;77.91
40872;BME280;26591;43.264;26.940;2023-03-04T00:43:29;99052.53;;;7.00;78.25
40872;BME280;26591;43.264;26.940;2023-03-04T00:45:56;99048.66;;;6.94;77.93
40872;BME280;26591;43.264;26.940;2023-03-04T00:48:22;99049.38;;;6.86;77.47
40872;BME280;26591;43.264;26.940;2023-03-04T00:50:47;99050.59;;;7.02;78.16
40872;BME280;26591;43.264;26.940;2023-03-04T00:53:17;99049.94;;;6.80;78.10
40872;BME280;26591;43.264;26.940;2023-03-04T00:55:43;99048.69;;;6.75;79.00
40872;BME280;26591;43.264;26.940;2023-03-04T00:58:08;99042.19;;;6.69;77.95
40872;BME280;26591;43.264;26.940;2023-03-04T01:00:34;99036.41;;;6.55;78.66
40872;BME280;26591;43.264;26.940;2023-03-04T01:02:59;99030.03;;;6.58;79.16
40872;BME280;26591;43.264;26.940;2023-03-04T01:05:25;99030.44;;;6.73;78.94
40872;BME280;26591;43.264;26.940;2023-03-04T01:07:50;99035.41;;;6.76;79.12
40872;BME280;26591;43.264;26.940;2023-03-04T01:10:16;99033.38;;;7.08;77.80
40872;BME280;26591;43.264;26.940;2023-03-04T01:12:42;99028.47;;;7.23;78.21
40872;BME280;26591;43.264;26.940;2023-03-04T01:15:12;99030.75;;;7.45;77.31
40872;BME280;26591;43.264;26.940;2023-03-04T01:17:37;99030.75;;;7.08;77.81
40872;BME280;26591;43.264;26.940;2023-03-04T01:20:04;99037.66;;;7.18;76.92
40872;BME280;26591;43.264;26.940;2023-03-04T01:22:30;99037.47;;;7.30;77.49
40872;BME280;26591;43.264;26.940;2023-03-04T01:24:56;99038.00;;;7.33;76.55
40872;BME280;26591;43.264;26.940;2023-03-04T01:27:21;99037.91;;;7.25;76.59
40872;BME280;26591;43.264;26.940;2023-03-04T01:29:46;99035.69;;;6.83;77.29
40872;BME280;26591;43.264;26.940;2023-03-04T01:32:12;99042.53;;;7.03;77.17
40872;BME280;26591;43.264;26.940;2023-03-04T01:34:37;99036.94;;;7.26;77.38
40872;BME280;26591;43.264;26.940;2023-03-04T01:37:03;99027.56;;;6.56;77.78
40872;BME280;26591;43.264;26.940;2023-03-04T01:39:28;99030.50;;;7.01;78.22
40872;BME280;26591;43.264;26.940;2023-03-04T01:41:54;99028.34;;;7.24;77.18
40872;BME280;26591;43.264;26.940;2023-03-04T01:44:20;99021.13;;;7.26;76.84
40872;BME280;26591;43.264;26.940;2023-03-04T01:46:51;99027.22;;;7.27;75.99
40872;BME280;26591;43.264;26.940;2023-03-04T01:49:17;99029.31;;;7.51;76.25
40872;BME280;26591;43.264;26.940;2023-03-04T01:51:45;99026.41;;;7.54;76.00
40872;BME280;26591;43.264;26.940;2023-03-04T01:54:13;99024.34;;;7.48;76.01
40872;BME280;26591;43.264;26.940;2023-03-04T01:56:39;99020.28;;;7.54;75.25
40872;BME280;26591;43.264;26.940;2023-03-04T01:59:16;99014.09;;;7.45;75.62
40872;BME280;26591;43.264;26.940;2023-03-04T02:01:54;99019.13;;;7.38;75.35
40872;BME280;26591;43.264;26.940;2023-03-04T02:04:22;99018.56;;;7.44;75.43
40872;BME280;26591;43.264;26.940;2023-03-04T02:06:48;99026.19;;;7.66;76.22
40872;BME280;26591;43.264;26.940;2023-03-04T02:09:15;99022.81;;;7.73;75.37
40872;BME280;26591;43.264;26.940;2023-03-04T02:11:41;99021.69;;;7.76;75.42
40872;BME280;26591;43.264;26.940;2023-03-04T02:14:08;99023.44;;;7.85;74.77
40872;BME280;26591;43.264;26.940;2023-03-04T02:16:33;99022.72;;;7.93;75.13
40872;BME280;26591;43.264;26.940;2023-03-04T02:19:00;99019.47;;;7.99;74.23
40872;BME280;26591;43.264;26.940;2023-03-04T02:21:28;99015.00;;;7.82;74.39
40872;BME280;26591;43.264;26.940;2023-03-04T02:26:27;99014.53;;;7.12;75.51
40872;BME280;26591;43.264;26.940;2023-03-04T02:28:55;99009.75;;;7.26;76.07
40872;BME280;26591;43.264;26.940;2023-03-04T02:31:24;99008.06;;;7.35;75.47
40872;BME280;26591;43.264;26.940;2023-03-04T02:33:52;99001.09;;;7.43;75.80
40872;BME280;26591;43.264;26.940;2023-03-04T02:36:18;99006.16;;;7.55;75.58
40872;BME280;26591;43.264;26.940;2023-03-04T02:38:43;99009.50;;;7.19;76.21
40872;BME280;26591;43.264;26.940;2023-03-04T02:41:14;99006.22;;;7.07;77.18
40872;BME280;26591;43.264;26.940;2023-03-04T02:43:43;99006.41;;;6.96;77.21
40872;BME280;26591;43.264;26.940;2023-03-04T02:46:11;99008.84;;;7.07;77.63
40872;BME280;26591;43.264;26.940;2023-03-04T02:48:37;99011.69;;;7.24;77.02
40872;BME280;26591;43.264;26.940;2023-03-04T02:51:02;99016.25;;;7.31;77.00
40872;BME280;26591;43.264;26.940;2023-03-04T02:53:28;99011.88;;;7.50;76.20
40872;BME280;26591;43.264;26.940;2023-03-04T02:55:53;99014.06;;;7.55;76.15
40872;BME280;26591;43.264;26.940;2023-03-04T02:58:19;99010.16;;;7.59;76.24
40872;BME280;26591;43.264;26.940;2023-03-04T03:00:45;99008.25;;;7.51;76.17
40872;BME280;26591;43.264;26.940;2023-03-04T03:03:10;99008.56;;;7.66;75.32
40872;BME280;26591;43.264;26.940;2023-03-04T03:05:36;99011.31;;;7.74;75.06
40872;BME280;26591;43.264;26.940;2023-03-04T03:08:03;99010.47;;;7.74;74.79
40872;BME280;26591;43.264;26.940;2023-03-04T03:10:29;99006.03;;;7.74;74.60
40872;BME280;26591;43.264;26.940;2023-03-04T03:12:55;99009.81;;;7.72;74.99
40872;BME280;26591;43.264;26.940;2023-03-04T03:15:20;99003.75;;;7.33;74.76
40872;BME280;26591;43.264;26.940;2023-03-04T03:17:46;99002.34;;;7.39;75.00
40872;BME280;26591;43.264;26.940;2023-03-04T03:20:12;99004.84;;;7.41;75.37
40872;BME280;26591;43.264;26.940;2023-03-04T03:22:39;98997.19;;;7.47;75.07
40872;BME280;26591;43.264;26.940;2023-03-04T03:25:05;98991.56;;;7.32;75.08
40872;BME280;26591;43.264;26.940;2023-03-04T03:27:31;99004.53;;;7.44;75.27
40872;BME280;26591;43.264;26.940;2023-03-04T03:29:56;98999.91;;;7.56;75.77
40872;BME280;26591;43.264;26.940;2023-03-04T03:32:21;98999.34;;;7.34;75.45
40872;BME280;26591;43.264;26.940;2023-03-04T03:34:47;98998.94;;;7.29;76.03
40872;BME280;26591;43.264;26.940;2023-03-04T03:37:28;98998.38;;;7.35;75.54
40872;BME280;26591;43.264;26.940;2023-03-04T03:39:53;98992.41;;;7.33;75.40
40872;BME280;26591;43.264;26.940;2023-03-04T03:42:18;98998.56;;;7.14;76.23
40872;BME280;26591;43.264;26.940;2023-03-04T03:44:44;99003.59;;;7.07;76.37
40872;BME280;26591;43.264;26.940;2023-03-04T03:47:11;98996.09;;;6.65;77.98
40872;BME280;26591;43.264;26.940;2023-03-04T03:49:36;99006.31;;;6.87;78.35
40872;BME280;26591;43.264;26.940;2023-03-04T03:52:02;99010.56;;;6.98;78.96
40872;BME280;26591;43.264;26.940;2023-03-04T03:54:27;98998.50;;;6.96;78.73
40872;BME280;26591;43.264;26.940;2023-03-04T03:56:53;99007.19;;;6.68;80.09
40872;BME280;26591;43.264;26.940;2023-03-04T03:59:18;99002.13;;;6.08;82.28
40872;BME280;26591;43.264;26.940;2023-03-04T04:01:44;99006.09;;;5.92;82.97
40872;BME280;26591;43.264;26.940;2023-03-04T04:04:09;98994.78;;;6.31;83.00
40872;BME280;26591;43.264;26.940;2023-03-04T04:06:35;98989.63;;;6.59;82.74
40872;BME280;26591;43.264;26.940;2023-03-04T04:09:00;98983.84;;;6.26;83.09
40872;BME280;26591;43.264;26.940;2023-03-04T04:11:25;98991.19;;;6.32;82.72
40872;BME280;26591;43.264;26.940;2023-03-04T04:13:52;98990.06;;;6.45;82.91
40872;BME280;26591;43.264;26.940;2023-03-04T04:16:18;98999.34;;;6.39;82.43
40872;BME280;26591;43.264;26.940;2023-03-04T04:18:43;98999.63;;;6.36;82.51
40872;BME280;26591;43.264;26.940;2023-03-04T04:21:09;99000.31;;;6.48;82.78
40872;BME280;26591;43.264;26.940;2023-03-04T04:23:34;99015.38;;;6.55;82.62
40872;BME280;26591;43.264;26.940;2023-03-04T04:26:00;99009.94;;;6.77;82.36
40872;BME280;26591;43.264;26.940;2023-03-04T04:28:25;99009.06;;;6.86;81.35
40872;BME280;26591;43.264;26.940;2023-03-04T04:30:51;99004.38;;;6.80;80.65
40872;BME280;26591;43.264;26.940;2023-03-04T04:33:16;98991.44;;;6.59;80.21
40872;BME280;26591;43.264;26.940;2023-03-04T04:35:42;98995.06;;;6.38;79.75
40872;BME280;26591;43.264;26.940;2023-03-04T04:38:08;99006.78;;;6.63;79.59
40872;BME280;26591;43.264;26.940;2023-03-04T04:40:34;99002.38;;;6.34;79.56
40872;BME280;26591;43.264;26.940;2023-03-04T04:43:00;99011.38;;;6.41;79.21
40872;BME280;26591;43.264;26.940;2023-03-04T04:45:25;99014.09;;;6.69;78.28
40872;BME280;26591;43.264;26.940;2023-03-04T04:47:52;99030.13;;;6.86;77.86
40872;BME280;26591;43.264;26.940;2023-03-04T04:50:17;99032.78;;;6.76;78.34
40872;BME280;26591;43.264;26.940;2023-03-04T04:52:43;99045.88;;;6.96;77.63
40872;BME280;26591;43.264;26.940;2023-03-04T04:55:09;99049.28;;;7.16;76.93
40872;BME280;26591;43.264;26.940;2023-03-04T04:57:34;99053.00;;;7.23;77.55
40872;BME280;26591;43.264;26.940;2023-03-04T05:00:00;99048.09;;;7.38;77.10
40872;BME280;26591;43.264;26.940;2023-03-04T05:02:25;99049.13;;;7.55;77.04
40872;BME280;26591;43.264;26.940;2023-03-04T05:04:51;99047.16;;;7.29;76.88
40872;BME280;26591;43.264;26.940;2023-03-04T05:07:16;99051.28;;;6.94;77.54
40872;BME280;26591;43.264;26.940;2023-03-04T05:09:42;99052.97;;;6.95;77.82
40872;BME280;26591;43.264;26.940;2023-03-04T05:12:07;99055.44;;;6.87;79.43
40872;BME280;26591;43.264;26.940;2023-03-04T05:14:33;99060.78;;;7.15;79.00
40872;BME280;26591;43.264;26.940;2023-03-04T05:16:58;99054.91;;;7.31;78.11
40872;BME280;26591;43.264;26.940;2023-03-04T05:19:24;99059.06;;;7.33;78.26
40872;BME280;26591;43.264;26.940;2023-03-04T05:21:49;99057.56;;;7.31;78.15
40872;BME280;26591;43.264;26.940;2023-03-04T05:24:15;99065.78;;;7.08;78.62
40872;BME280;26591;43.264;26.940;2023-03-04T05:26:40;99067.53;;;6.60;80.39
40872;BME280;26591;43.264;26.940;2023-03-04T05:29:06;99059.00;;;6.38;81.86
40872;BME280;26591;43.264;26.940;2023-03-04T05:31:31;99064.25;;;6.38;82.58
40872;BME280;26591;43.264;26.940;2023-03-04T05:33:57;99063.50;;;6.85;82.66
40872;BME280;26591;43.264;26.940;2023-03-04T05:36:22;99061.34;;;7.18;81.21
40872;BME280;26591;43.264;26.940;2023-03-04T05:38:48;99067.41;;;7.19;81.48
40872;BME280;26591;43.264;26.940;2023-03-04T05:41:13;99065.69;;;7.38;80.91
40872;BME280;26591;43.264;26.940;2023-03-04T05:43:39;99074.09;;;7.51;80.31
40872;BME280;26591;43.264;26.940;2023-03-04T05:46:08;99072.41;;;7.60;79.75
40872;BME280;26591;43.264;26.940;2023-03-04T05:48:37;99069.22;;;7.56;78.67
40872;BME280;26591;43.264;26.940;2023-03-04T05:51:03;99076.69;;;7.61;79.18
40872;BME280;26591;43.264;26.940;2023-03-04T05:53:28;99070.00;;;7.67;78.60
40872;BME280;26591;43.264;26.940;2023-03-04T05:55:55;99072.22;;;7.89;78.22
40872;BME280;26591;43.264;26.940;2023-03-04T05:58:23;99070.72;;;7.87;78.18
40872;BME280;26591;43.264;26.940;2023-03-04T06:00:49;99070.78;;;7.77;77.42
40872;BME280;26591;43.264;26.940;2023-03-04T06:03:19;99076.34;;;6.98;79.61
40872;BME280;26591;43.264;26.940;2023-03-04T06:05:45;99077.97;;;7.09;80.80
40872;BME280;26591;43.264;26.940;2023-03-04T06:08:11;99080.78;;;7.45;80.02
40872;BME280;26591;43.264;26.940;2023-03-04T06:10:39;99075.84;;;7.60;79.49
40872;BME280;26591;43.264;26.940;2023-03-04T06:13:06;99083.53;;;7.44;79.93
40872;BME280;26591;43.264;26.940;2023-03-04T06:15:32;99088.44;;;7.29;80.21
40872;BME280;26591;43.264;26.940;2023-03-04T06:17:57;99078.63;;;7.31;79.54
40872;BME280;26591;43.264;26.940;2023-03-04T06:22:58;99083.56;;;6.86;81.56
40872;BME280;26591;43.264;26.940;2023-03-04T06:25:23;99085.09;;;6.89;82.34
40872;BME280;26591;43.264;26.940;2023-03-04T06:27:49;99085.75;;;7.01;82.31
40872;BME280;26591;43.264;26.940;2023-03-04T06:30:23;99091.00;;;7.11;81.91
40872;BME280;26591;43.264;26.940;2023-03-04T06:32:58;99087.09;;;7.15;82.18
40872;BME280;26591;43.264;26.940;2023-03-04T06:35:24;99086.94;;;7.26;81.96
40872;BME280;26591;43.264;26.940;2023-03-04T06:37:49;99088.28;;;7.30;81.12
40872;BME280;26591;43.264;26.940;2023-03-04T06:40:15;99095.03;;;7.43;81.14
40872;BME280;26591;43.264;26.940;2023-03-04T06:42:42;99081.72;;;7.54;81.02
40872;BME280;26591;43.264;26.940;2023-03-04T06:45:08;99074.72;;;6.87;82.29
40872;BME280;26591;43.264;26.940;2023-03-04T06:47:34;99073.31;;;6.93;82.55
40872;BME280;26591;43.264;26.940;2023-03-04T06:50:00;99076.47;;;6.97;83.16
40872;BME280;26591;43.264;26.940;2023-03-04T06:52:25;99078.53;;;7.13;83.59
40872;BME280;26591;43.264;26.940;2023-03-04T06:54:51;99069.66;;;7.14;82.47
40872;BME280;26591;43.264;26.940;2023-03-04T06:57:16;99068.09;;;7.31;82.01
40872;BME280;26591;43.264;26.940;2023-03-04T06:59:42;99068.28;;;7.75;82.87
40872;BME280;26591;43.264;26.940;2023-03-04T07:02:10;99066.88;;;7.81;82.00
40872;BME280;26591;43.264;26.940;2023-03-04T07:04:35;99067.84;;;8.44;83.99
40872;BME280;26591;43.264;26.940;2023-03-04T07:07:01;99063.91;;;8.48;81.85
40872;BME280;26591;43.264;26.940;2023-03-04T07:09:26;99060.91;;;8.43;80.42
40872;BME280;26591;43.264;26.940;2023-03-04T07:11:52;99058.88;;;8.55;79.00
40872;BME280;26591;43.264;26.940;2023-03-04T07:14:17;99058.72;;;8.57;78.69
40872;BME280;26591;43.264;26.940;2023-03-04T07:16:43;99056.19;;;8.91;78.71
40872;BME280;26591;43.264;26.940;2023-03-04T07:19:08;99057.53;;;8.95;77.46
40872;BME280;26591;43.264;26.940;2023-03-04T07:21:34;99062.03;;;9.03;76.74
40872;BME280;26591;43.264;26.940;2023-03-04T07:24:00;99055.91;;;9.03;76.27
40872;BME280;26591;43.264;26.940;2023-03-04T07:26:26;99049.13;;;9.61;78.50
40872;BME280;26591;43.264;26.940;2023-03-04T07:28:51;99054.94;;;10.65;75.52
40872;BME280;26591;43.264;26.940;2023-03-04T07:31:29;99041.84;;;10.72;71.70
40872;BME280;26591;43.264;26.940;2023-03-04T07:33:58;99038.38;;;10.63;71.47
40872;BME280;26591;43.264;26.940;2023-03-04T07:36:24;99044.50;;;10.72;69.71
40872;BME280;26591;43.264;26.940;2023-03-04T07:38:50;99036.41;;;10.49;68.38
40872;BME280;26591;43.264;26.940;2023-03-04T07:41:17;99031.41;;;10.21;70.25
40872;BME280;26591;43.264;26.940;2023-03-04T07:43:43;99037.19;;;10.25;70.10
40872;BME280;26591;43.264;26.940;2023-03-04T07:46:09;99037.69;;;10.36;70.36
40872;BME280;26591;43.264;26.940;2023-03-04T07:48:35;99035.75;;;10.63;70.03
40872;BME280;26591;43.264;26.940;2023-03-04T07:51:11;99027.28;;;10.76;69.08
40872;BME280;26591;43.264;26.940;2023-03-04T07:53:39;99022.16;;;10.75;68.27
40872;BME280;26591;43.264;26.940;2023-03-04T07:56:05;99019.81;;;10.88;67.60
40872;BME280;26591;43.264;26.940;2023-03-04T07:58:32;99022.66;;;10.87;66.14
40872;BME280;26591;43.264;26.940;2023-03-04T08:00:57;99025.31;;;10.62;67.72
40872;BME280;26591;43.264;26.940;2023-03-04T08:03:23;99025.63;;;10.26;68.37
40872;BME280;26591;43.264;26.940;2023-03-04T08:05:49;99030.84;;;10.01;69.93
40872;BME280;26591;43.264;26.940;2023-03-04T08:08:14;99032.41;;;10.36;69.81
40872;BME280;26591;43.264;26.940;2023-03-04T08:10:40;99029.25;;;10.33;70.09
40872;BME280;26591;43.264;26.940;2023-03-04T08:13:06;99028.22;;;11.08;68.73
40872;BME280;26591;43.264;26.940;2023-03-04T08:15:32;99026.50;;;11.24;68.04
40872;BME280;26591;43.264;26.940;2023-03-04T08:18:00;99023.59;;;11.02;65.74
40872;BME280;26591;43.264;26.940;2023-03-04T08:20:26;99027.38;;;11.16;65.91
40872;BME280;26591;43.264;26.940;2023-03-04T08:22:54;99034.50;;;11.55;66.58
40872;BME280;26591;43.264;26.940;2023-03-04T08:25:20;99023.03;;;11.63;63.90
40872;BME280;26591;43.264;26.940;2023-03-04T08:27:45;99030.81;;;11.25;65.38
40872;BME280;26591;43.264;26.940;2023-03-04T08:30:11;99026.50;;;11.24;67.05
40872;BME280;26591;43.264;26.940;2023-03-04T08:32:38;99024.09;;;12.17;65.26
40872;BME280;26591;43.264;26.940;2023-03-04T08:35:04;99007.66;;;12.36;63.54
40872;BME280;26591;43.264;26.940;2023-03-04T08:37:30;99019.44;;;12.57;63.84
40872;BME280;26591;43.264;26.940;2023-03-04T08:39:55;99021.91;;;13.12;62.31
40872;BME280;26591;43.264;26.940;2023-03-04T08:42:21;99018.50;;;12.88;61.48
40872;BME280;26591;43.264;26.940;2023-03-04T08:44:48;99014.00;;;12.89;61.72
40872;BME280;26591;43.264;26.940;2023-03-04T08:47:14;99016.03;;;13.02;60.74
40872;BME280;26591;43.264;26.940;2023-03-04T08:49:39;99019.44;;;12.42;62.09
40872;BME280;26591;43.264;26.940;2023-03-04T08:52:05;99014.34;;;12.71;61.78
40872;BME280;26591;43.264;26.940;2023-03-04T08:54:30;99010.06;;;12.85;61.81
40872;BME280;26591;43.264;26.940;2023-03-04T08:56:56;99011.38;;;12.50;62.20
40872;BME280;26591;43.264;26.940;2023-03-04T08:59:21;99010.50;;;12.35;62.05
40872;BME280;26591;43.264;26.940;2023-03-04T09:01:47;99006.94;;;12.04;63.24
40872;BME280;26591;43.264;26.940;2023-03-04T09:04:12;98999.47;;;12.00;63.45
40872;BME280;26591;43.264;26.940;2023-03-04T09:06:38;98994.00;;;11.70;64.60
40872;BME280;26591;43.264;26.940;2023-03-04T09:09:04;98998.63;;;11.36;65.38
40872;BME280;26591;43.264;26.940;2023-03-04T09:11:29;98992.56;;;10.55;68.13
40872;BME280;26591;43.264;26.940;2023-03-04T09:13:55;98994.19;;;10.22;69.13
40872;BME280;26591;43.264;26.940;2023-03-04T09:16:21;98993.38;;;10.05;70.27
40872;BME280;26591;43.264;26.940;2023-03-04T09:18:47;98985.63;;;10.53;69.77
40872;BME280;26591;43.264;26.940;2023-03-04T09:21:12;98981.81;;;10.56;68.86
40872;BME280;26591;43.264;26.940;2023-03-04T09:23:38;98982.59;;;10.81;68.77
40872;BME280;26591;43.264;26.940;2023-03-04T09:26:21;98980.97;;;10.64;69.33
40872;BME280;26591;43.264;26.940;2023-03-04T09:28:55;98976.31;;;11.30;67.89
40872;BME280;26591;43.264;26.940;2023-03-04T09:31:21;98968.81;;;11.42;66.86
40872;BME280;26591;43.264;26.940;2023-03-04T09:33:47;98970.59;;;11.50;67.42
40872;BME280;26591;43.264;26.940;2023-03-04T09:36:14;98963.13;;;11.22;67.05
40872;BME280;26591;43.264;26.940;2023-03-04T09:38:40;98969.50;;;11.36;66.43
40872;BME280;26591;43.264;26.940;2023-03-04T09:41:15;98959.72;;;11.68;65.27
40872;BME280;26591;43.264;26.940;2023-03-04T09:43:43;98953.31;;;12.32;63.89
40872;BME280;26591;43.264;26.940;2023-03-04T09:46:33;98951.81;;;13.13;59.95
40872;BME280;26591;43.264;26.940;2023-03-04T09:49:00;98944.81;;;13.57;57.46
40872;BME280;26591;43.264;26.940;2023-03-04T09:54:09;98948.72;;;13.61;54.26
40872;BME280;26591;43.264;26.940;2023-03-04T09:56:40;98942.47;;;13.91;54.02
40872;BME280;26591;43.264;26.940;2023-03-04T09:59:29;98935.69;;;14.10;53.11
40872;BME280;26591;43.264;26.940;2023-03-04T10:01:59;98939.69;;;14.21;53.65
40872;BME280;26591;43.264;26.940;2023-03-04T10:04:39;98940.34;;;14.58;52.80
40872;BME280;26591;43.264;26.940;2023-03-04T10:07:16;98933.13;;;14.80;51.50
40872;BME280;26591;43.264;26.940;2023-03-04T10:09:48;98932.56;;;14.56;51.73
40872;BME280;26591;43.264;26.940;2023-03-04T10:12:21;98931.94;;;14.54;51.79
40872;BME280;26591;43.264;26.940;2023-03-04T10:18:02;98924.38;;;14.86;50.55
40872;BME280;26591;43.264;26.940;2023-03-04T10:20:43;98921.31;;;14.61;51.54
40872;BME280;26591;43.264;26.940;2023-03-04T10:23:18;98912.03;;;14.50;51.93
40872;BME280;26591;43.264;26.940;2023-03-04T10:25:44;98911.41;;;14.19;52.93
40872;BME280;26591;43.264;26.940;2023-03-04T10:28:22;98908.38;;;14.01;54.36
40872;BME280;26591;43.264;26.940;2023-03-04T10:33:38;98906.50;;;13.73;54.63
40872;BME280;26591;43.264;26.940;2023-03-04T10:38:41;98905.19;;;13.10;56.85
40872;BME280;26591;43.264;26.940;2023-03-04T10:41:15;98903.13;;;13.27;55.85
40872;BME280;26591;43.264;26.940;2023-03-04T10:43:42;98903.19;;;12.67;57.65
40872;BME280;26591;43.264;26.940;2023-03-04T10:46:11;98890.47;;;12.48;58.71
40872;BME280;26591;43.264;26.940;2023-03-04T10:48:41;98889.19;;;12.74;57.55
40872;BME280;26591;43.264;26.940;2023-03-04T10:51:20;98885.50;;;12.30;58.86
40872;BME280;26591;43.264;26.940;2023-03-04T10:53:48;98876.91;;;12.58;58.99
40872;BME280;26591;43.264;26.940;2023-03-04T10:56:58;98869.84;;;12.80;57.02
40872;BME280;26591;43.264;26.940;2023-03-04T11:01:57;98862.97;;;13.01;57.45
40872;BME280;26591;43.264;26.940;2023-03-04T11:04:23;98853.91;;;13.32;56.67
40872;BME280;26591;43.264;26.940;2023-03-04T11:06:53;98854.03;;;13.23;56.06
40872;BME280;26591;43.264;26.940;2023-03-04T11:09:26;98853.63;;;13.41;56.15
40872;BME280;26591;43.264;26.940;2023-03-04T11:11:54;98843.66;;;13.43;56.43
40872;BME280;26591;43.264;26.940;2023-03-04T11:14:25;98836.69;;;13.27;56.01
40872;BME280;26591;43.264;26.940;2023-03-04T11:16:59;98844.78;;;12.67;58.61
40872;BME280;26591;43.264;26.940;2023-03-04T11:19:37;98833.78;;;12.71;58.56
40872;BME280;26591;43.264;26.940;2023-03-04T11:22:04;98831.81;;;12.94;58.30
40872;BME280;26591;43.264;26.940;2023-03-04T11:24:33;98829.09;;;13.24;57.77
40872;BME280;26591;43.264;26.940;2023-03-04T11:27:05;98821.94;;;13.25;57.59
40872;BME280;26591;43.264;26.940;2023-03-04T11:32:48;98823.63;;;13.48;56.58
40872;BME280;26591;43.264;26.940;2023-03-04T11:35:22;98822.81;;;13.32;57.58
40872;BME280;26591;43.264;26.940;2023-03-04T11:38:00;98811.69;;;13.22;58.52
40872;BME280;26591;43.264;26.940;2023-03-04T11:40:53;98802.50;;;13.24;58.43
40872;BME280;26591;43.264;26.940;2023-03-04T11:43:36;98799.69;;;13.26;57.33
40872;BME280;26591;43.264;26.940;2023-03-04T11:46:43;98797.03;;;13.69;56.84
40872;BME280;26591;43.264;26.940;2023-03-04T11:55:28;98786.41;;;13.69;56.51
40872;BME280;26591;43.264;26.940;2023-03-04T11:58:19;98780.13;;;13.77;56.69
40872;BME280;26591;43.264;26.940;2023-03-04T12:14:01;98786.41;;;14.75;54.04
40872;BME280;26591;43.264;26.940;2023-03-04T12:23:36;98791.25;;;15.33;53.74
40872;BME280;26591;43.264;26.940;2023-03-04T12:29:06;98777.97;;;14.71;55.03
40872;BME280;26591;43.264;26.940;2023-03-04T12:31:41;98783.22;;;15.13;57.93
40872;BME280;26591;43.264;26.940;2023-03-04T12:34:27;98783.09;;;15.41;54.29
40872;BME280;26591;43.264;26.940;2023-03-04T12:46:06;98769.13;;;15.39;52.28
40872;BME280;26591;43.264;26.940;2023-03-04T12:51:34;98757.44;;;15.54;52.88
40872;BME280;26591;43.264;26.940;2023-03-04T12:54:22;98753.34;;;15.71;52.30
40872;BME280;26591;43.264;26.940;2023-03-04T12:59:25;98752.25;;;15.05;55.94
40872;BME280;26591;43.264;26.940;2023-03-04T13:02:17;98749.84;;;15.51;54.05
40872;BME280;26591;43.264;26.940;2023-03-04T13:10:21;98735.66;;;15.17;52.09
40872;BME280;26591;43.264;26.940;2023-03-04T13:12:53;98730.56;;;15.29;51.73
40872;BME280;26591;43.264;26.940;2023-03-04T13:18:01;98727.63;;;14.83;50.86
40872;BME280;26591;43.264;26.940;2023-03-04T13:20:39;98721.69;;;15.01;50.64
40872;BME280;26591;43.264;26.940;2023-03-04T13:25:46;98705.13;;;15.26;50.32
40872;BME280;26591;43.264;26.940;2023-03-04T13:28:18;98705.13;;;15.53;51.89
40872;BME280;26591;43.264;26.940;2023-03-04T13:31:11;98699.56;;;15.61;51.79
40872;BME280;26591;43.264;26.940;2023-03-04T13:43:44;98678.03;;;14.95;49.51
40872;BME280;26591;43.264;26.940;2023-03-04T14:06:53;98659.59;;;15.14;48.60
40872;BME280;26591;43.264;26.940;2023-03-04T14:09:23;98660.63;;;15.20;48.84
40872;BME280;26591;43.264;26.940;2023-03-04T14:12:13;98654.50;;;15.06;49.45
40872;BME280;26591;43.264;26.940;2023-03-04T14:14:49;98649.56;;;15.30;49.34
40872;BME280;26591;43.264;26.940;2023-03-04T14:17:23;98653.25;;;15.02;49.76
40872;BME280;26591;43.264;26.940;2023-03-04T14:19:52;98648.53;;;14.77;50.52
40872;BME280;26591;43.264;26.940;2023-03-04T14:22:35;98647.75;;;14.34;51.96
40872;BME280;26591;43.264;26.940;2023-03-04T14:27:43;98638.47;;;14.72;51.22
40872;BME280;26591;43.264;26.940;2023-03-04T14:30:24;98634.91;;;14.45;51.17
40872;BME280;26591;43.264;26.940;2023-03-04T14:32:52;98633.66;;;14.34;51.77
40872;BME280;26591;43.264;26.940;2023-03-04T14:35:24;98632.34;;;14.10;52.24
40872;BME280;26591;43.264;26.940;2023-03-04T14:40:54;98635.22;;;14.08;52.53
40872;BME280;26591;43.264;26.940;2023-03-04T14:43:22;98643.38;;;14.75;56.88
40872;BME280;26591;43.264;26.940;2023-03-04T14:45:51;98644.22;;;15.43;54.95
40872;BME280;26591;43.264;26.940;2023-03-04T14:48:32;98637.19;;;15.69;53.12
40872;BME280;26591;43.264;26.940;2023-03-04T14:50:59;98628.66;;;15.20;50.68
40872;BME280;26591;43.264;26.940;2023-03-04T14:53:27;98628.66;;;14.93;51.39
40872;BME280;26591;43.264;26.940;2023-03-04T14:56:05;98628.22;;;14.69;51.50